createdAt,value
2023-09-05T00:02:03.670Z,9.59
2023-09-05T00:05:07.002Z,9.58
2023-09-05T00:08:08.769Z,9.61
2023-09-05T00:11:10.421Z,9.64
2023-09-05T00:14:12.801Z,9.65
2023-09-05T00:17:14.508Z,9.66
2023-09-05T00:20:17.063Z,9.63
2023-09-05T00:23:18.657Z,9.61
2023-09-05T00:26:20.422Z,9.56
2023-09-05T00:29:23.594Z,9.54
2023-09-05T00:32:25.206Z,9.48
2023-09-05T00:35:27.240Z,9.35
2023-09-05T00:38:29.633Z,9.25
2023-09-05T00:41:31.211Z,9.15
2023-09-05T00:44:32.972Z,9.07
2023-09-05T00:47:34.575Z,9.02
2023-09-05T00:50:36.356Z,8.89
2023-09-05T00:53:38.127Z,8.74
2023-09-05T00:56:39.833Z,8.69
2023-09-05T00:59:42.540Z,8.70
2023-09-05T01:02:44.205Z,8.67
2023-09-05T01:05:48.882Z,8.66
2023-09-05T01:08:57.625Z,8.61
2023-09-05T01:11:59.349Z,8.59
2023-09-05T01:15:01.055Z,8.59
2023-09-05T01:18:02.740Z,8.59
2023-09-05T01:21:10.432Z,8.56
2023-09-05T01:24:21.738Z,8.56
2023-09-05T01:27:24.980Z,8.58
2023-09-05T01:30:28.842Z,8.58
2023-09-05T01:33:30.429Z,8.57
2023-09-05T01:36:32.110Z,8.54
2023-09-05T01:39:33.796Z,8.50
2023-09-05T01:42:35.483Z,8.44
2023-09-05T01:45:37.140Z,8.38
2023-09-05T01:48:38.918Z,8.33
2023-09-05T01:51:40.553Z,8.31
2023-09-05T01:54:42.663Z,8.29
2023-09-05T01:57:44.232Z,8.26
2023-09-05T02:00:45.962Z,8.25
2023-09-05T02:03:48.921Z,8.23
2023-09-05T02:06:50.587Z,8.21
2023-09-05T02:09:52.180Z,8.18
2023-09-05T02:12:53.829Z,8.11
2023-09-05T02:15:55.544Z,8.04
2023-09-05T02:18:58.108Z,7.98
2023-09-05T02:21:59.777Z,7.95
2023-09-05T02:25:01.599Z,7.94
2023-09-05T02:28:03.563Z,7.89
2023-09-05T02:31:06.695Z,7.85
2023-09-05T02:34:08.307Z,7.81
2023-09-05T02:37:09.843Z,7.82
2023-09-05T02:40:11.936Z,7.81
2023-09-05T02:43:14.482Z,7.78
2023-09-05T02:46:16.705Z,7.79
2023-09-05T02:49:18.485Z,7.79
2023-09-05T02:52:20.051Z,7.82
2023-09-05T02:55:21.896Z,7.87
2023-09-05T02:58:23.562Z,7.86
2023-09-05T03:01:25.434Z,7.82
2023-09-05T03:04:27.307Z,7.77
2023-09-05T03:07:29.385Z,7.77
2023-09-05T03:10:31.062Z,7.74
2023-09-05T03:13:32.689Z,7.62
2023-09-05T03:16:34.319Z,7.59
2023-09-05T03:19:40.471Z,7.60
2023-09-05T03:22:42.578Z,7.60
2023-09-05T03:25:44.509Z,7.64
2023-09-05T03:28:46.541Z,7.66
2023-09-05T03:31:49.330Z,7.66
2023-09-05T03:34:50.919Z,7.66
2023-09-05T03:37:52.536Z,7.64
2023-09-05T03:40:57.312Z,7.64
2023-09-05T03:43:58.910Z,7.64
2023-09-05T03:47:00.701Z,7.61
2023-09-05T03:50:02.271Z,7.57
2023-09-05T03:53:04.128Z,7.55
2023-09-05T03:56:06.466Z,7.54
2023-09-05T03:59:08.139Z,7.54
2023-09-05T04:02:09.833Z,7.53
2023-09-05T04:05:11.437Z,7.54
2023-09-05T04:08:13.200Z,7.53
2023-09-05T04:11:14.768Z,7.53
2023-09-05T04:14:16.509Z,7.54
2023-09-05T04:17:18.391Z,7.56
2023-09-05T04:20:20.275Z,7.62
2023-09-05T04:23:22.037Z,7.66
2023-09-05T04:26:23.961Z,7.63
2023-09-05T04:29:25.936Z,7.52
2023-09-05T04:32:27.851Z,7.46
2023-09-05T04:35:30.918Z,7.50
2023-09-05T04:38:32.536Z,7.59
2023-09-05T04:41:34.394Z,7.68
2023-09-05T04:44:36.216Z,7.80
2023-09-05T04:47:38.255Z,7.93
2023-09-05T04:50:39.810Z,8.06
2023-09-05T04:53:42.201Z,8.20
2023-09-05T04:56:43.838Z,8.34
2023-09-05T04:59:46.247Z,8.48
2023-09-05T05:02:48.066Z,8.62
2023-09-05T05:05:49.792Z,8.77
2023-09-05T05:08:51.430Z,8.91
2023-09-05T05:11:53.119Z,9.09
2023-09-05T05:14:55.018Z,9.28
2023-09-05T05:17:56.682Z,9.75
2023-09-05T05:20:58.634Z,10.37
2023-09-05T05:24:00.354Z,10.89
2023-09-05T05:27:02.249Z,11.29
2023-09-05T05:30:04.297Z,11.71
2023-09-05T05:33:06.002Z,12.08
2023-09-05T05:36:07.856Z,12.41
2023-09-05T05:39:13.218Z,12.73
2023-09-05T05:42:14.917Z,13.06
2023-09-05T05:45:16.707Z,13.37
2023-09-05T05:48:18.394Z,13.72
2023-09-05T05:51:20.212Z,13.98
2023-09-05T05:54:22.070Z,14.23
2023-09-05T05:57:23.732Z,14.44
2023-09-05T06:00:25.540Z,14.66
2023-09-05T06:03:27.305Z,14.82
2023-09-05T06:06:29.494Z,15.07
2023-09-05T06:09:31.507Z,15.43
2023-09-05T06:12:33.226Z,15.87
2023-09-05T06:15:35.144Z,16.34
2023-09-05T06:18:40.089Z,16.90
2023-09-05T06:21:42.206Z,17.36
2023-09-05T06:24:44.087Z,17.79
2023-09-05T06:27:45.971Z,18.16
2023-09-05T06:30:47.705Z,18.19
2023-09-05T06:33:49.350Z,18.26
2023-09-05T06:36:51.072Z,18.70
2023-09-05T06:39:52.782Z,19.24
2023-09-05T06:42:54.332Z,19.64
2023-09-05T06:46:03.788Z,20.11
2023-09-05T06:49:05.573Z,20.41
2023-09-05T06:52:07.185Z,20.57
2023-09-05T06:55:09.168Z,20.95
2023-09-05T06:58:10.735Z,21.42
2023-09-05T07:01:12.377Z,21.89
2023-09-05T07:04:14.758Z,22.21
2023-09-05T07:07:16.733Z,22.47
2023-09-05T07:10:18.382Z,22.72
2023-09-05T07:13:20.006Z,22.93
2023-09-05T07:16:21.835Z,23.17
2023-09-05T07:19:23.796Z,23.38
2023-09-05T07:22:25.440Z,23.62
2023-09-05T07:25:27.177Z,23.81
2023-09-05T07:28:29.676Z,24.01
2023-09-05T07:31:31.610Z,24.45
2023-09-05T07:34:33.358Z,24.44
2023-09-05T07:37:34.979Z,24.53
2023-09-05T07:40:36.596Z,24.95
2023-09-05T07:43:38.565Z,25.30
2023-09-05T07:46:40.400Z,25.61
2023-09-05T07:49:41.991Z,25.81
2023-09-05T07:52:43.646Z,25.91
2023-09-05T07:55:45.523Z,26.31
2023-09-05T07:58:47.193Z,26.63
2023-09-05T08:01:48.907Z,26.40
2023-09-05T08:04:50.512Z,26.14
2023-09-05T08:07:52.226Z,26.12
2023-09-05T08:10:54.194Z,26.14
2023-09-05T08:13:57.189Z,26.82
2023-09-05T08:16:59.067Z,27.34
2023-09-05T08:20:00.692Z,27.22
2023-09-05T08:23:02.411Z,27.30
2023-09-05T08:26:04.251Z,27.83
2023-09-05T08:29:05.964Z,28.22
2023-09-05T08:32:07.929Z,28.34
2023-09-05T08:35:10.376Z,28.28
2023-09-05T08:38:12.036Z,28.51
2023-09-05T08:41:13.762Z,28.85
2023-09-05T08:44:15.371Z,28.82
2023-09-05T08:47:17.020Z,28.32
2023-09-05T08:50:18.807Z,28.07
2023-09-05T08:53:24.117Z,27.85
2023-09-05T08:56:26.460Z,27.40
2023-09-05T08:59:29.058Z,27.59
2023-09-05T09:02:30.762Z,27.83
2023-09-05T09:05:32.537Z,27.76
2023-09-05T09:08:44.814Z,27.64
2023-09-05T09:11:59.761Z,27.39
2023-09-05T09:15:14.196Z,27.49
2023-09-05T09:18:17.660Z,27.85
2023-09-05T09:21:23.345Z,28.40
2023-09-05T09:24:31.786Z,29.07
2023-09-05T09:27:33.429Z,29.55
2023-09-05T09:30:35.200Z,29.69
2023-09-05T09:33:37.169Z,29.90
2023-09-05T09:36:39.130Z,29.66
2023-09-05T09:39:40.925Z,29.70
2023-09-05T09:42:43.912Z,30.23
2023-09-05T09:45:45.568Z,30.37
2023-09-05T09:48:48.058Z,30.46
2023-09-05T09:51:53.099Z,30.86
2023-09-05T09:54:56.277Z,31.30
2023-09-05T09:58:02.090Z,31.05
2023-09-05T10:01:05.020Z,31.34
2023-09-05T10:04:07.041Z,31.42
2023-09-05T10:07:11.549Z,31.57
2023-09-05T10:10:13.256Z,31.88
2023-09-05T10:13:15.717Z,31.97
2023-09-05T10:16:18.397Z,31.84
2023-09-05T10:19:20.961Z,32.04
2023-09-05T10:22:22.777Z,31.59
2023-09-05T10:25:24.820Z,31.13
2023-09-05T10:28:28.285Z,30.31
2023-09-05T10:31:30.815Z,29.83
2023-09-05T10:34:50.540Z,30.11
2023-09-05T10:37:59.205Z,30.86
2023-09-05T10:41:00.799Z,31.31
2023-09-05T10:44:02.723Z,31.50
2023-09-05T10:47:26.129Z,31.93
2023-09-05T10:50:27.835Z,32.22
2023-09-05T10:53:29.774Z,32.11
2023-09-05T10:56:42.370Z,32.01
2023-09-05T10:59:44.118Z,31.65
2023-09-05T11:02:48.344Z,31.84
2023-09-05T11:05:49.961Z,31.13
2023-09-05T11:09:01.992Z,31.11
2023-09-05T11:12:06.392Z,30.70
2023-09-05T11:15:08.846Z,29.36
2023-09-05T11:18:12.551Z,29.53
2023-09-05T11:21:22.932Z,30.16
2023-09-05T11:24:31.490Z,30.26
2023-09-05T11:27:33.270Z,30.01
2023-09-05T11:30:38.808Z,29.69
2023-09-05T11:33:40.511Z,29.57
2023-09-05T11:36:42.204Z,29.41
2023-09-05T11:39:43.957Z,29.16
2023-09-05T11:42:45.606Z,29.45
2023-09-05T11:45:47.414Z,30.16
2023-09-05T11:48:51.634Z,30.26
2023-09-05T11:51:53.454Z,30.31
2023-09-05T11:54:55.610Z,30.44
2023-09-05T11:57:58.454Z,30.51
2023-09-05T12:01:01.601Z,30.16
2023-09-05T12:04:04.091Z,30.34
2023-09-05T12:07:06.249Z,30.74
2023-09-05T12:10:08.384Z,30.55
2023-09-05T12:13:10.139Z,30.28
2023-09-05T12:16:12.043Z,30.06
2023-09-05T12:19:13.668Z,29.41
2023-09-05T12:22:21.427Z,29.09
2023-09-05T12:25:26.152Z,28.84
2023-09-05T12:28:28.916Z,28.02
2023-09-05T12:31:30.874Z,27.43
2023-09-05T12:34:32.546Z,27.16
2023-09-05T12:37:34.204Z,26.95
2023-09-05T12:40:35.859Z,26.92
2023-09-05T12:43:37.715Z,27.03
2023-09-05T12:46:39.504Z,26.72
2023-09-05T12:49:41.472Z,26.57
2023-09-05T12:52:43.862Z,26.55
2023-09-05T12:55:45.635Z,26.63
2023-09-05T12:58:47.447Z,26.65
2023-09-05T13:01:49.306Z,26.79
2023-09-05T13:04:51.073Z,27.09
2023-09-05T13:07:52.706Z,27.11
2023-09-05T13:10:54.281Z,27.08
2023-09-05T13:13:56.022Z,27.22
2023-09-05T13:16:57.659Z,27.38
2023-09-05T13:19:59.424Z,27.54
2023-09-05T13:23:01.531Z,27.74
2023-09-05T13:26:04.485Z,27.76
2023-09-05T13:29:07.055Z,27.90
2023-09-05T13:32:08.768Z,28.16
2023-09-05T13:35:10.698Z,28.52
2023-09-05T13:38:12.624Z,28.54
2023-09-05T13:41:14.171Z,28.20
2023-09-05T13:44:15.836Z,27.72
2023-09-05T13:47:18.216Z,27.54
2023-09-05T13:50:21.626Z,27.40
2023-09-05T13:53:23.633Z,27.15
2023-09-05T13:56:25.614Z,26.93
2023-09-05T13:59:27.377Z,26.77
2023-09-05T14:02:29.024Z,26.48
2023-09-05T14:05:30.936Z,26.47
2023-09-05T14:08:32.582Z,26.25
2023-09-05T14:11:34.258Z,26.05
2023-09-05T14:14:36.055Z,25.79
2023-09-05T14:17:37.748Z,25.20
2023-09-05T14:20:40.062Z,25.10
2023-09-05T14:23:41.823Z,24.92
2023-09-05T14:26:43.845Z,24.82
2023-09-05T14:29:45.432Z,24.56
2023-09-05T14:32:47.140Z,24.55
2023-09-05T14:35:48.726Z,24.58
2023-09-05T14:38:50.396Z,24.45
2023-09-05T14:41:52.083Z,24.40
2023-09-05T14:44:54.035Z,24.56
2023-09-05T14:47:56.344Z,24.65
2023-09-05T14:50:57.992Z,24.53
2023-09-05T14:53:59.565Z,24.58
2023-09-05T14:57:01.285Z,24.66
2023-09-05T15:00:03.421Z,24.75
2023-09-05T15:03:05.415Z,24.74
2023-09-05T15:06:07.611Z,24.88
2023-09-05T15:09:09.968Z,25.39
2023-09-05T15:12:12.092Z,25.72
2023-09-05T15:15:13.776Z,25.59
2023-09-05T15:18:15.456Z,25.52
2023-09-05T15:21:17.385Z,25.75
2023-09-05T15:24:19.062Z,26.18
2023-09-05T15:27:21.175Z,26.16
2023-09-05T15:30:22.948Z,26.00
2023-09-05T15:33:25.700Z,26.39
2023-09-05T15:36:28.823Z,26.53
2023-09-05T15:39:30.480Z,26.61
2023-09-05T15:42:32.691Z,26.34
2023-09-05T15:45:34.449Z,25.77
2023-09-05T15:48:36.247Z,25.25
2023-09-05T15:51:38.040Z,25.00
2023-09-05T15:54:43.105Z,25.11
2023-09-05T15:57:45.020Z,25.07
2023-09-05T16:00:47.568Z,24.99
2023-09-05T16:03:49.669Z,24.87
2023-09-05T16:06:51.599Z,24.73
2023-09-05T16:09:53.246Z,24.55
2023-09-05T16:12:54.929Z,24.38
2023-09-05T16:15:56.789Z,24.24
2023-09-05T16:19:05.435Z,24.10
2023-09-05T16:22:07.140Z,24.00
2023-09-05T16:25:09.562Z,23.85
2023-09-05T16:28:11.188Z,23.72
2023-09-05T16:31:17.935Z,23.56
2023-09-05T16:34:19.706Z,23.39
2023-09-05T16:37:24.096Z,23.23
2023-09-05T16:40:28.703Z,23.07
2023-09-05T16:43:30.876Z,22.89
2023-09-05T16:46:32.577Z,22.70
2023-09-05T16:49:34.451Z,22.45
2023-09-05T16:52:36.109Z,22.14
2023-09-05T16:55:38.094Z,21.83
2023-09-05T16:58:39.976Z,21.53
2023-09-05T17:01:41.740Z,21.20
2023-09-05T17:04:43.385Z,20.86
2023-09-05T17:07:45.314Z,20.53
2023-09-05T17:10:49.293Z,20.21
2023-09-05T17:13:50.903Z,19.94
2023-09-05T17:16:52.623Z,19.60
2023-09-05T17:19:54.312Z,19.23
2023-09-05T17:22:55.946Z,18.94
2023-09-05T17:25:58.222Z,18.68
2023-09-05T17:28:59.871Z,18.46
2023-09-05T17:32:01.732Z,18.26
2023-09-05T17:35:03.938Z,18.08
2023-09-05T17:38:05.826Z,17.91
2023-09-05T17:41:08.082Z,17.77
2023-09-05T17:44:10.179Z,17.59
2023-09-05T17:47:14.171Z,17.39
2023-09-05T17:50:16.389Z,17.22
2023-09-05T17:53:18.037Z,17.07
2023-09-05T17:56:19.662Z,16.94
2023-09-05T17:59:21.375Z,16.78
2023-09-05T18:02:23.306Z,16.62
2023-09-05T18:05:26.715Z,16.44
2023-09-05T18:08:29.007Z,16.29
2023-09-05T18:11:30.806Z,16.14
2023-09-05T18:14:39.068Z,15.98
2023-09-05T18:17:40.912Z,15.88
2023-09-05T18:20:42.533Z,15.78
2023-09-05T18:23:44.154Z,15.60
2023-09-05T18:26:46.240Z,15.43
2023-09-05T18:29:48.478Z,15.25
2023-09-05T18:32:51.287Z,15.09
2023-09-05T18:35:53.073Z,14.91
2023-09-05T18:38:54.695Z,14.74
2023-09-05T18:41:56.394Z,14.61
2023-09-05T18:44:58.189Z,14.49
2023-09-05T18:48:00.054Z,14.38
2023-09-05T18:51:02.147Z,14.24
2023-09-05T18:54:04.152Z,14.15
2023-09-05T18:57:05.970Z,14.08
2023-09-05T19:00:08.276Z,14.01
2023-09-05T19:03:09.995Z,13.94
2023-09-05T19:06:11.646Z,13.87
2023-09-05T19:09:13.854Z,13.81
2023-09-05T19:12:15.551Z,13.75
2023-09-05T19:15:17.368Z,13.68
2023-09-05T19:18:19.155Z,13.61
2023-09-05T19:21:20.989Z,13.55
2023-09-05T19:24:22.783Z,13.50
2023-09-05T19:27:24.498Z,13.43
2023-09-05T19:30:26.170Z,13.30
2023-09-05T19:33:27.793Z,13.07
2023-09-05T19:36:29.531Z,12.82
2023-09-05T19:39:31.379Z,12.72
2023-09-05T19:42:34.776Z,12.69
2023-09-05T19:45:36.401Z,12.68
2023-09-05T19:48:38.059Z,12.67
2023-09-05T19:51:39.776Z,12.64
2023-09-05T19:54:41.499Z,12.63
2023-09-05T19:57:43.370Z,12.64
2023-09-05T20:00:46.183Z,12.63
2023-09-05T20:03:48.172Z,12.64
2023-09-05T20:06:50.347Z,12.64
2023-09-05T20:09:52.085Z,12.60
2023-09-05T20:12:53.911Z,12.54
2023-09-05T20:15:56.085Z,12.45
2023-09-05T20:18:58.004Z,12.38
2023-09-05T20:21:59.722Z,12.31
2023-09-05T20:25:01.520Z,12.24
2023-09-05T20:28:03.226Z,12.19
2023-09-05T20:31:05.257Z,12.16
2023-09-05T20:34:07.095Z,12.13
2023-09-05T20:37:08.866Z,12.08
2023-09-05T20:40:11.103Z,11.97
2023-09-05T20:43:12.863Z,11.90
2023-09-05T20:46:14.514Z,11.85
2023-09-05T20:49:16.344Z,11.76
2023-09-05T20:52:18.136Z,11.68
2023-09-05T20:55:19.811Z,11.63
2023-09-05T20:58:21.455Z,11.59
2023-09-05T21:01:23.254Z,11.55
2023-09-05T21:04:25.283Z,11.51
2023-09-05T21:07:27.066Z,11.47
2023-09-05T21:10:28.952Z,11.46
2023-09-05T21:13:30.689Z,11.44
2023-09-05T21:16:32.341Z,11.41
2023-09-05T21:19:34.260Z,11.36
2023-09-05T21:22:35.853Z,11.27
2023-09-05T21:25:37.480Z,11.20
2023-09-05T21:28:40.015Z,11.15
2023-09-05T21:31:41.695Z,11.08
2023-09-05T21:34:43.429Z,11.01
2023-09-05T21:37:45.033Z,10.93
2023-09-05T21:40:46.947Z,10.86
2023-09-05T21:43:51.719Z,10.81
2023-09-05T21:46:53.718Z,10.77
2023-09-05T21:49:55.697Z,10.75
2023-09-05T21:52:57.242Z,10.73
2023-09-05T21:55:59.064Z,10.66
2023-09-05T21:59:00.733Z,10.58
2023-09-05T22:02:02.365Z,10.60
2023-09-05T22:05:04.307Z,10.62
2023-09-05T22:08:06.478Z,10.62
2023-09-05T22:11:08.131Z,10.56
2023-09-05T22:14:11.035Z,10.51
2023-09-05T22:17:15.013Z,10.46
2023-09-05T22:20:16.675Z,10.43
2023-09-05T22:23:19.263Z,10.40
2023-09-05T22:26:21.029Z,10.36
2023-09-05T22:29:22.901Z,10.32
2023-09-05T22:32:24.678Z,10.27
2023-09-05T22:35:33.369Z,10.17
2023-09-05T22:38:36.580Z,10.14
2023-09-05T22:41:39.069Z,10.18
2023-09-05T22:44:41.749Z,10.17
2023-09-05T22:47:43.840Z,10.10
2023-09-05T22:50:47.671Z,10.04
2023-09-05T22:53:49.934Z,9.94
2023-09-05T22:56:51.709Z,9.90
2023-09-05T22:59:53.381Z,9.90
2023-09-05T23:02:55.406Z,9.88
2023-09-05T23:05:57.588Z,9.86
2023-09-05T23:08:59.434Z,9.82
2023-09-05T23:12:02.171Z,9.76
2023-09-05T23:15:05.103Z,9.71
2023-09-05T23:18:07.822Z,9.70
2023-09-05T23:21:09.744Z,9.66
2023-09-05T23:24:11.329Z,9.61
2023-09-05T23:27:13.462Z,9.58
2023-09-05T23:30:15.279Z,9.54
2023-09-05T23:33:18.114Z,9.50
2023-09-05T23:36:20.825Z,9.44
2023-09-05T23:39:23.126Z,9.36
2023-09-05T23:42:25.140Z,9.31
2023-09-05T23:45:27.873Z,9.28
2023-09-05T23:48:29.731Z,9.27
2023-09-05T23:51:31.671Z,9.25
2023-09-05T23:54:33.380Z,9.21
2023-09-05T23:57:35.206Z,9.17
